| time (UTC) | temp F | wind direction | speed MPH | gust MPH | rain 1hr in | rain 24hr in | rain mn in | humidity % | barometer mb |
| 20260508115002 | 36 | 250 | 6.0 | 9.0 | 0.01 | 0.17 | 0.10 | 94 | 1019.3 |
| 20260508114502 | 36 | 248 | 6.0 | 9.0 | 0.01 | 0.17 | 0.10 | 94 | 1019.2 |
| 20260508114002 | 36 | 230 | 5.0 | 8.0 | 0.01 | 0.17 | 0.10 | 93 | 1019.2 |
| 20260508113502 | 36 | 229 | 5.0 | 7.0 | 0.01 | 0.17 | 0.10 | 93 | 1019.2 |
| 20260508113002 | 36 | 216 | 4.0 | 7.0 | 0.01 | 0.17 | 0.10 | 93 | 1019.2 |
| 20260508112502 | 36 | 224 | 3.0 | 7.0 | 0.02 | 0.17 | 0.10 | 93 | 1019.2 |
| 20260508112002 | 36 | 200 | 1.0 | 5.0 | 0.03 | 0.17 | 0.10 | 93 | 1019.0 |
| 20260508110502 | 37 | 252 | 3.0 | 4.0 | 0.06 | 0.17 | 0.10 | 93 | 1019.1 |
| 20260508110005 | 37 | 268 | 3.0 | 5.0 | 0.07 | 0.17 | 0.10 | 93 | 1019.2 |
| 20260508105502 | 36 | 281 | 5.0 | 7.0 | 0.08 | 0.17 | 0.10 | 93 | 1019.5 |
| 20260508105002 | 36 | 316 | 5.0 | 7.0 | 0.07 | 0.16 | 0.09 | 93 | 1019.7 |
| 20260508104502 | 36 | 340 | 6.0 | 8.0 | 0.07 | 0.16 | 0.09 | 93 | 1019.7 |
| 20260508104002 | 36 | 321 | 7.0 | 11.0 | 0.07 | 0.16 | 0.09 | 93 | 1019.7 |
| 20260508103502 | 36 | 328 | 7.0 | 11.0 | 0.07 | 0.16 | 0.09 | 93 | 1019.8 |
| 20260508103002 | 36 | 328 | 8.0 | 13.0 | 0.07 | 0.16 | 0.09 | 93 | 1019.7 |
| 20260508102502 | 36 | 328 | 10.0 | 16.0 | 0.06 | 0.15 | 0.08 | 93 | 1019.8 |
| 20260508101503 | 36 | 338 | 12.0 | 19.0 | 0.04 | 0.13 | 0.06 | 93 | 1020.0 |
| 20260508100502 | 37 | 345 | 7.0 | 15.0 | 0.02 | 0.11 | 0.04 | 93 | 1020.0 |
| 20260508100005 | 37 | 342 | 5.0 | 9.0 | 0.00 | 0.09 | 0.02 | 93 | 1019.7 |
| 20260508095502 | 37 | 338 | 5.0 | 7.0 | 0.00 | 0.09 | 0.02 | 94 | 1019.1 |
| 20260508094503 | 37 | 342 | 1.0 | 6.0 | 0.00 | 0.09 | 0.02 | 94 | 1018.9 |
| 20260508094003 | 37 | 8 | 1.0 | 3.0 | 0.00 | 0.09 | 0.02 | 94 | 1018.7 |
| 20260508093502 | 37 | 355 | 0.0 | 3.0 | 0.00 | 0.09 | 0.02 | 94 | 1018.9 |
| 20260508091502 | 37 | 355 | 4.0 | 7.0 | 0.00 | 0.09 | 0.02 | 93 | 1018.5 |
| 20260508090005 | 37 | 4 | 7.0 | 12.0 | 0.00 | 0.09 | 0.02 | 94 | 1018.4 |
| 20260508085002 | 37 | 23 | 4.0 | 9.0 | 0.02 | 0.09 | 0.02 | 95 | 1018.6 |
| 20260508084503 | 37 | 351 | 4.0 | 6.0 | 0.02 | 0.09 | 0.02 | 95 | 1018.5 |
| 20260508084003 | 37 | 5 | 3.0 | 5.0 | 0.02 | 0.09 | 0.02 | 94 | 1018.5 |
| 20260508083502 | 37 | 7 | 2.0 | 4.0 | 0.02 | 0.09 | 0.02 | 94 | 1018.6 |
| 20260508083002 | 37 | 32 | 1.0 | 4.0 | 0.02 | 0.09 | 0.02 | 94 | 1018.5 |
| 20260508082503 | 38 | 4 | 1.0 | 3.0 | 0.02 | 0.09 | 0.02 | 94 | 1018.5 |
| 20260508082002 | 38 | 42 | 2.0 | 4.0 | 0.02 | 0.09 | 0.02 | 94 | 1018.5 |
| 20260508081502 | 38 | 30 | 4.0 | 9.0 | 0.02 | 0.09 | 0.02 | 94 | 1018.5 |
| 20260508081002 | 38 | 353 | 7.0 | 13.0 | 0.02 | 0.09 | 0.02 | 95 | 1018.5 |
| 20260508080005 | 38 | 351 | 11.0 | 19.0 | 0.02 | 0.09 | 0.02 | 95 | 1018.9 |
| 20260508075503 | 38 | 353 | 8.0 | 19.0 | 0.00 | 0.07 | 0.00 | 95 | 1019.1 |
| 20260508075002 | 37 | 351 | 3.0 | 12.0 | 0.00 | 0.07 | 0.00 | 94 | 1018.6 |
| 20260508074502 | 37 | 33 | 3.0 | 8.0 | 0.00 | 0.07 | 0.00 | 94 | 1018.2 |
| 20260508074003 | 37 | 29 | 3.0 | 8.0 | 0.00 | 0.07 | 0.00 | 94 | 1018.1 |
| 20260508073002 | 37 | 20 | 0.0 | 3.0 | 0.00 | 0.07 | 0.00 | 93 | 1017.9 |
| 20260508072502 | 37 | 127 | 1.0 | 3.0 | 0.00 | 0.07 | 0.00 | 92 | 1017.6 |
| 20260508071502 | 38 | 126 | 3.0 | 5.0 | 0.00 | 0.07 | 0.00 | 93 | 1017.5 |
| 20260508071002 | 38 | 127 | 3.0 | 4.0 | 0.00 | 0.07 | 0.00 | 92 | 1017.5 |
| 20260508070503 | 38 | 103 | 3.0 | 4.0 | 0.00 | 0.07 | 0.00 | 92 | 1017.5 |
| 20260508070005 | 38 | 116 | 3.0 | 4.0 | 0.00 | 0.07 | 0.00 | 91 | 1017.4 |
| 20260508065502 | 38 | 132 | 3.0 | 4.0 | 0.00 | 0.07 | 0.00 | 91 | 1017.5 |
| 20260508064502 | 39 | 146 | 3.0 | 5.0 | 0.00 | 0.07 | 0.00 | 91 | 1017.7 |
| 20260508064002 | 39 | 115 | 2.0 | 4.0 | 0.00 | 0.07 | 0.00 | 91 | 1017.7 |
| 20260508063502 | 39 | 110 | 2.0 | 3.0 | 0.00 | 0.07 | 0.00 | 90 | 1017.9 |
| 20260508063003 | 40 | 110 | 1.0 | 3.0 | 0.00 | 0.07 | 0.00 | 89 | 1018.2 |
| 20260508062002 | 40 | 326 | 0.0 | 2.0 | 0.00 | 0.07 | 0.00 | 89 | 1018.5 |
| 20260508061502 | 40 | 323 | 0.0 | 2.0 | 0.00 | 0.07 | 0.00 | 89 | 1018.5 |
| 20260508061003 | 40 | 14 | 0.0 | 2.0 | 0.00 | 0.07 | 0.00 | 88 | 1018.5 |
| 20260508060503 | 40 | 14 | 1.0 | 2.0 | 0.00 | 0.07 | 0.00 | 89 | 1018.5 |
| 20260508060006 | 41 | 14 | 1.0 | 4.0 | 0.01 | 0.07 | 0.00 | 89 | 1018.6 |
| 20260508055504 | 41 | 14 | 2.0 | 4.0 | 0.02 | 0.07 | 0.07 | 89 | 1018.6 |
| 20260508055002 | 41 | 12 | 2.0 | 4.0 | 0.02 | 0.07 | 0.07 | 89 | 1018.7 |
| 20260508054502 | 41 | 15 | 2.0 | 4.0 | 0.02 | 0.07 | 0.07 | 88 | 1018.3 |
| 20260508054002 | 41 | 21 | 1.0 | 4.0 | 0.02 | 0.07 | 0.07 | 88 | 1018.4 |
| 20260508053502 | 41 | 68 | 1.0 | 4.0 | 0.02 | 0.07 | 0.07 | 87 | 1018.4 |
| 20260508053002 | 42 | 281 | 1.0 | 4.0 | 0.02 | 0.07 | 0.07 | 86 | 1018.3 |
| 20260508052002 | 42 | 333 | 4.0 | 5.0 | 0.02 | 0.07 | 0.07 | 87 | 1018.6 |
| 20260508051502 | 42 | 334 | 5.0 | 9.0 | 0.02 | 0.07 | 0.07 | 86 | 1018.7 |
| 20260508051002 | 42 | 317 | 6.0 | 9.0 | 0.02 | 0.07 | 0.07 | 85 | 1018.8 |
| 20260508050502 | 42 | 330 | 6.0 | 13.0 | 0.02 | 0.07 | 0.07 | 85 | 1018.7 |
| 20260508050005 | 42 | 328 | 5.0 | 13.0 | 0.01 | 0.06 | 0.06 | 82 | 1018.7 |
| 20260508045503 | 42 | 321 | 3.0 | 6.0 | 0.00 | 0.05 | 0.05 | 85 | 1018.7 |
| 20260508045002 | 42 | 341 | 3.0 | 6.0 | 0.00 | 0.05 | 0.05 | 86 | 1018.7 |
| 20260508044002 | 42 | 339 | 3.0 | 6.0 | 0.00 | 0.05 | 0.05 | 85 | 1018.5 |
| 20260508043502 | 42 | 340 | 3.0 | 6.0 | 0.00 | 0.05 | 0.05 | 85 | 1018.2 |
| 20260508043003 | 42 | 315 | 3.0 | 8.0 | 0.00 | 0.05 | 0.05 | 84 | 1018.0 |
| 20260508042502 | 42 | 278 | 3.0 | 5.0 | 0.00 | 0.05 | 0.05 | 86 | 1018.0 |
| 20260508042003 | 42 | 354 | 3.0 | 5.0 | 0.00 | 0.05 | 0.05 | 86 | 1017.9 |
| 20260508041502 | 42 | 340 | 4.0 | 6.0 | 0.00 | 0.05 | 0.05 | 86 | 1018.0 |
| 20260508041002 | 42 | 17 | 4.0 | 8.0 | 0.00 | 0.05 | 0.05 | 85 | 1018.1 |
| 20260508040502 | 42 | 11 | 4.0 | 8.0 | 0.00 | 0.05 | 0.05 | 84 | 1017.9 |
| 20260508040005 | 42 | 20 | 3.0 | 7.0 | 0.00 | 0.05 | 0.05 | 84 | 1017.9 |
| 20260508035003 | 43 | 352 | 7.0 | 12.0 | 0.00 | 0.05 | 0.05 | 84 | 1017.8 |
| 20260508034502 | 43 | 29 | 7.0 | 12.0 | 0.00 | 0.05 | 0.05 | 83 | 1017.9 |
| 20260508034002 | 44 | 8 | 7.0 | 12.0 | 0.00 | 0.05 | 0.05 | 82 | 1018.0 |
| 20260508033002 | 44 | 307 | 11.0 | 17.0 | 0.00 | 0.05 | 0.05 | 78 | 1018.1 |
| 20260508032502 | 44 | 295 | 11.0 | 17.0 | 0.00 | 0.05 | 0.05 | 80 | 1017.8 |
| 20260508032002 | 43 | 261 | 12.0 | 17.0 | 0.00 | 0.05 | 0.05 | 81 | 1017.4 |
| 20260508031502 | 44 | 263 | 13.0 | 18.0 | 0.00 | 0.05 | 0.05 | 80 | 1017.4 |
| 20260508031002 | 44 | 266 | 13.0 | 18.0 | 0.00 | 0.05 | 0.05 | 79 | 1017.1 |
| 20260508030502 | 44 | 257 | 13.0 | 17.0 | 0.00 | 0.05 | 0.05 | 79 | 1016.9 |
| 20260508030005 | 45 | 247 | 13.0 | 16.0 | 0.00 | 0.05 | 0.05 | 77 | 1016.8 |
| 20260508025502 | 45 | 269 | 12.0 | 16.0 | 0.00 | 0.05 | 0.05 | 76 | 1016.7 |
| 20260508025003 | 45 | 248 | 11.0 | 15.0 | 0.00 | 0.05 | 0.05 | 77 | 1016.8 |
| 20260508024502 | 45 | 255 | 10.0 | 15.0 | 0.00 | 0.05 | 0.05 | 76 | 1016.6 |
| 20260508024002 | 45 | 257 | 9.0 | 13.0 | 0.00 | 0.05 | 0.05 | 75 | 1016.6 |
| 20260508023502 | 46 | 257 | 10.0 | 14.0 | 0.00 | 0.05 | 0.05 | 74 | 1016.3 |
| 20260508023002 | 46 | 266 | 12.0 | 16.0 | 0.00 | 0.05 | 0.05 | 71 | 1016.4 |
| 20260508021502 | 45 | 297 | 9.0 | 18.0 | 0.00 | 0.05 | 0.05 | 78 | 1017.3 |
| 20260508021002 | 45 | 238 | 7.0 | 14.0 | 0.00 | 0.05 | 0.05 | 78 | 1017.1 |
| 20260508020502 | 45 | 259 | 5.0 | 12.0 | 0.00 | 0.05 | 0.05 | 80 | 1017.1 |
| 20260508015503 | 46 | 254 | 5.0 | 7.0 | 0.01 | 0.05 | 0.05 | 77 | 1016.8 |
| 20260508015002 | 46 | 241 | 5.0 | 6.0 | 0.01 | 0.05 | 0.05 | 77 | 1016.9 |
| 20260508014502 | 46 | 259 | 6.0 | 9.0 | 0.01 | 0.05 | 0.05 | 77 | 1016.9 |
| 20260508013502 | 46 | 271 | 8.0 | 11.0 | 0.01 | 0.05 | 0.05 | 80 | 1016.9 |
| 20260508013002 | 46 | 286 | 9.0 | 13.0 | 0.01 | 0.05 | 0.05 | 80 | 1016.7 |
| 20260508012502 | 46 | 277 | 9.0 | 13.0 | 0.01 | 0.05 | 0.05 | 78 | 1016.8 |
| 20260508012002 | 46 | 271 | 9.0 | 12.0 | 0.05 | 0.05 | 0.05 | 79 | 1016.9 |
| 20260508011502 | 46 | 283 | 10.0 | 14.0 | 0.05 | 0.05 | 0.05 | 78 | 1017.0 |
| 20260508011002 | 46 | 322 | 12.0 | 26.0 | 0.05 | 0.05 | 0.05 | 77 | 1017.1 |
| 20260508010502 | 45 | 312 | 7.0 | 26.0 | 0.05 | 0.05 | 0.05 | 76 | 1016.8 |
| 20260508010005 | 44 | 245 | 4.0 | 7.0 | 0.04 | 0.04 | 0.04 | 79 | 1017.1 |
| 20260508005503 | 44 | 202 | 4.0 | 7.0 | 0.04 | 0.04 | 0.04 | 81 | 1016.8 |
| 20260508005002 | 45 | 169 | 4.0 | 6.0 | 0.04 | 0.04 | 0.04 | 80 | 1016.8 |
| 20260508004502 | 45 | 174 | 2.0 | 6.0 | 0.04 | 0.04 | 0.04 | 79 | 1016.7 |
| 20260508004002 | 45 | 219 | 1.0 | 3.0 | 0.04 | 0.04 | 0.04 | 78 | 1016.7 |
| 20260508003502 | 44 | 17 | 4.0 | 8.0 | 0.04 | 0.04 | 0.04 | 81 | 1016.6 |
| 20260508003002 | 44 | 343 | 11.0 | 19.0 | 0.04 | 0.04 | 0.04 | 82 | 1016.7 |
| 20260508002502 | 44 | 359 | 14.0 | 23.0 | 0.04 | 0.04 | 0.04 | 80 | 1016.9 |
| 20260508002002 | 46 | 345 | 8.0 | 23.0 | 0.00 | 0.00 | 0.00 | 72 | 1017.1 |
| 20260508001502 | 49 | 359 | 4.0 | 14.0 | 0.00 | 0.00 | 0.00 | 67 | 1017.0 |
| 20260508001002 | 49 | 232 | 7.0 | 11.0 | 0.00 | 0.00 | 0.00 | 65 | 1016.6 |
| 20260508000503 | 50 | 190 | 10.0 | 13.0 | 0.00 | 0.00 | 0.00 | 65 | 1016.4 |
| 20260508000005 | 50 | 228 | 11.0 | 14.0 | 0.00 | 0.00 | 0.00 | 65 | 1016.2 |
| 20260507235502 | 50 | 227 | 11.0 | 15.0 | 0.00 | 0.00 | 0.00 | 63 | 1016.2 |
| 20260507235002 | 51 | 208 | 10.0 | 15.0 | 0.00 | 0.00 | 0.00 | 63 | 1016.2 |
| 20260507234502 | 52 | 257 | 9.0 | 15.0 | 0.00 | 0.00 | 0.00 | 61 | 1016.2 |
| 20260507234002 | 52 | 252 | 10.0 | 15.0 | 0.00 | 0.00 | 0.00 | 60 | 1016.3 |
| 20260507233503 | 51 | 256 | 12.0 | 15.0 | 0.00 | 0.00 | 0.00 | 59 | 1016.3 |
| 20260507233002 | 52 | 236 | 13.0 | 19.0 | 0.00 | 0.00 | 0.00 | 60 | 1016.3 |
| 20260507232502 | 52 | 267 | 15.0 | 20.0 | 0.00 | 0.00 | 0.00 | 59 | 1016.2 |
| 20260507232002 | 53 | 266 | 15.0 | 20.0 | 0.00 | 0.00 | 0.00 | 55 | 1016.3 |
| 20260507230502 | 54 | 307 | 20.0 | 29.0 | 0.00 | 0.00 | 0.00 | 52 | 1016.2 |
| 20260507230005 | 54 | 285 | 21.0 | 30.0 | 0.00 | 0.00 | 0.00 | 54 | 1016.2 |
| 20260507224003 | 49 | 297 | 23.0 | 31.0 | 0.00 | 0.00 | 0.00 | 61 | 1015.9 |
| 20260507223503 | 50 | 285 | 24.0 | 37.0 | 0.00 | 0.00 | 0.00 | 59 | 1016.1 |
| 20260507223002 | 50 | 297 | 23.0 | 37.0 | 0.00 | 0.00 | 0.00 | 59 | 1016.2 |
| 20260507222502 | 51 | 293 | 20.0 | 33.0 | 0.00 | 0.00 | 0.00 | 60 | 1016.3 |
| 20260507222002 | 51 | 294 | 21.0 | 32.0 | 0.00 | 0.00 | 0.00 | 58 | 1016.2 |
| 20260507221502 | 51 | 295 | 21.0 | 31.0 | 0.00 | 0.00 | 0.00 | 55 | 1016.3 |
| 20260507221002 | 52 | 297 | 19.0 | 31.0 | 0.00 | 0.00 | 0.00 | 55 | 1016.1 |
| 20260507220503 | 52 | 316 | 19.0 | 27.0 | 0.00 | 0.00 | 0.00 | 56 | 1016.3 |
| 20260507220004 | 51 | 295 | 17.0 | 26.0 | 0.00 | 0.00 | 0.00 | 57 | 1016.2 |
| 20260507215502 | 50 | 295 | 12.0 | 19.0 | 0.00 | 0.00 | 0.00 | 64 | 1016.2 |
| 20260507215002 | 49 | 251 | 14.0 | 18.0 | 0.00 | 0.00 | 0.00 | 68 | 1016.3 |
| 20260507214503 | 49 | 236 | 16.0 | 22.0 | 0.00 | 0.00 | 0.00 | 67 | 1016.2 |
| 20260507213502 | 47 | 295 | 21.0 | 27.0 | 0.00 | 0.00 | 0.00 | 70 | 1016.5 |
| 20260507213002 | 47 | 276 | 26.0 | 35.0 | 0.00 | 0.00 | 0.00 | 71 | 1016.5 |
| 20260507212502 | 48 | 288 | 23.0 | 35.0 | 0.00 | 0.00 | 0.00 | 68 | 1016.6 |
| 20260507212002 | 51 | 288 | 16.0 | 32.0 | 0.00 | 0.00 | 0.00 | 60 | 1016.8 |
| 20260507211503 | 52 | 278 | 14.0 | 20.0 | 0.00 | 0.00 | 0.00 | 57 | 1016.6 |
| 20260507211003 | 52 | 257 | 15.0 | 22.0 | 0.00 | 0.00 | 0.00 | 58 | 1016.5 |
| 20260507210005 | 53 | 314 | 20.0 | 33.0 | 0.00 | 0.00 | 0.00 | 56 | 1016.7 |
| 20260507205502 | 52 | 290 | 21.0 | 33.0 | 0.00 | 0.00 | 0.00 | 55 | 1016.7 |
| 20260507205003 | 53 | 288 | 20.0 | 31.0 | 0.00 | 0.00 | 0.00 | 53 | 1016.7 |
| 20260507204503 | 54 | 290 | 15.0 | 31.0 | 0.00 | 0.00 | 0.00 | 48 | 1016.7 |
| 20260507204002 | 54 | 304 | 12.0 | 24.0 | 0.00 | 0.00 | 0.00 | 47 | 1016.5 |
| 20260507203503 | 53 | 328 | 11.0 | 17.0 | 0.00 | 0.00 | 0.00 | 46 | 1016.5 |
| 20260507203002 | 52 | 341 | 19.0 | 36.0 | 0.00 | 0.00 | 0.00 | 51 | 1016.7 |
| 20260507202502 | 52 | 322 | 16.0 | 36.0 | 0.00 | 0.00 | 0.00 | 50 | 1016.6 |
| 20260507202002 | 54 | 314 | 9.0 | 32.0 | 0.00 | 0.00 | 0.00 | 42 | 1016.4 |
| 20260507201502 | 55 | 353 | 7.0 | 17.0 | 0.00 | 0.00 | 0.00 | 43 | 1016.3 |
| 20260507201003 | 55 | 303 | 6.0 | 14.0 | 0.00 | 0.00 | 0.00 | 42 | 1016.4 |
| 20260507200503 | 54 | 231 | 7.0 | 17.0 | 0.00 | 0.00 | 0.00 | 40 | 1016.6 |
| 20260507200005 | 54 | 335 | 9.0 | 17.0 | 0.00 | 0.00 | 0.00 | 44 | 1016.7 |
| 20260507195502 | 54 | 307 | 10.0 | 23.0 | 0.00 | 0.04 | 0.00 | 42 | 1016.7 |
| 20260507195003 | 54 | 321 | 9.0 | 18.0 | 0.00 | 0.04 | 0.00 | 43 | 1016.8 |
| 20260507194502 | 54 | 267 | 9.0 | 14.0 | 0.00 | 0.04 | 0.00 | 42 | 1016.8 |
| 20260507194002 | 54 | 320 | 10.0 | 25.0 | 0.00 | 0.04 | 0.00 | 45 | 1017.0 |
| 20260507193503 | 54 | 349 | 7.0 | 25.0 | 0.00 | 0.04 | 0.00 | 43 | 1017.0 |
| 20260507193002 | 53 | 283 | 4.0 | 10.0 | 0.00 | 0.04 | 0.00 | 46 | 1017.0 |
| 20260507192502 | 53 | 311 | 7.0 | 10.0 | 0.00 | 0.04 | 0.00 | 48 | 1016.9 |
| 20260507191003 | 54 | 271 | 11.0 | 19.0 | 0.00 | 0.04 | 0.00 | 49 | 1017.2 |
| 20260507190502 | 55 | 317 | 11.0 | 18.0 | 0.00 | 0.04 | 0.00 | 49 | 1017.1 |
| 20260507185503 | 54 | 284 | 15.0 | 25.0 | 0.00 | 0.11 | 0.00 | 45 | 1017.3 |
| 20260507185002 | 54 | 302 | 15.0 | 25.0 | 0.00 | 0.11 | 0.00 | 44 | 1017.3 |
| 20260507184502 | 54 | 271 | 18.0 | 27.0 | 0.00 | 0.11 | 0.00 | 43 | 1017.3 |
| 20260507184002 | 54 | 283 | 18.0 | 27.0 | 0.00 | 0.11 | 0.00 | 44 | 1017.4 |
| 20260507183502 | 54 | 290 | 16.0 | 22.0 | 0.00 | 0.11 | 0.00 | 46 | 1017.4 |
| 20260507183003 | 54 | 277 | 16.0 | 25.0 | 0.00 | 0.11 | 0.00 | 49 | 1017.4 |
| 20260507182002 | 52 | 266 | 10.0 | 14.0 | 0.00 | 0.11 | 0.00 | 51 | 1017.5 |
| 20260507181502 | 51 | 283 | 11.0 | 17.0 | 0.00 | 0.11 | 0.00 | 52 | 1017.5 |
| 20260507181002 | 51 | 257 | 13.0 | 17.0 | 0.00 | 0.11 | 0.00 | 53 | 1017.5 |
| 20260507180502 | 50 | 250 | 13.0 | 18.0 | 0.00 | 0.11 | 0.00 | 52 | 1017.5 |
| 20260507180005 | 49 | 263 | 14.0 | 19.0 | 0.00 | 0.11 | 0.00 | 56 | 1017.5 |
| 20260507175503 | 49 | 245 | 14.0 | 19.0 | 0.00 | 0.15 | 0.00 | 58 | 1017.5 |
| 20260507175003 | 48 | 240 | 14.0 | 19.0 | 0.00 | 0.15 | 0.00 | 56 | 1017.5 |
| 20260507174503 | 48 | 264 | 13.0 | 19.0 | 0.00 | 0.15 | 0.00 | 52 | 1017.6 |
| 20260507173502 | 48 | 250 | 14.0 | 18.0 | 0.00 | 0.15 | 0.00 | 55 | 1017.6 |
| 20260507173003 | 48 | 243 | 14.0 | 18.0 | 0.00 | 0.15 | 0.00 | 52 | 1017.7 |
| 20260507172502 | 49 | 248 | 13.0 | 18.0 | 0.00 | 0.15 | 0.00 | 51 | 1017.8 |
| 20260507172002 | 50 | 275 | 13.0 | 18.0 | 0.00 | 0.15 | 0.00 | 50 | 1017.8 |
| 20260507171502 | 51 | 252 | 12.0 | 18.0 | 0.00 | 0.15 | 0.00 | 52 | 1017.8 |
| 20260507171003 | 49 | 264 | 11.0 | 16.0 | 0.00 | 0.15 | 0.00 | 52 | 1018.0 |
| 20260507170503 | 48 | 235 | 11.0 | 15.0 | 0.00 | 0.15 | 0.00 | 50 | 1018.1 |
| 20260507170005 | 49 | 245 | 11.0 | 23.0 | 0.00 | 0.15 | 0.00 | 51 | 1018.2 |
| 20260507165502 | 49 | 250 | 12.0 | 23.0 | 0.00 | 0.15 | 0.00 | 53 | 1018.2 |
| 20260507165002 | 49 | 256 | 13.0 | 17.0 | 0.00 | 0.15 | 0.00 | 51 | 1018.3 |
| 20260507164002 | 49 | 236 | 14.0 | 22.0 | 0.00 | 0.15 | 0.00 | 52 | 1018.3 |
| 20260507163502 | 48 | 238 | 15.0 | 22.0 | 0.00 | 0.15 | 0.00 | 52 | 1018.3 |
| 20260507163002 | 48 | 288 | 15.0 | 20.0 | 0.00 | 0.15 | 0.00 | 53 | 1018.3 |
| 20260507162502 | 47 | 236 | 16.0 | 21.0 | 0.00 | 0.15 | 0.00 | 53 | 1018.4 |
| 20260507161003 | 46 | 274 | 13.0 | 18.0 | 0.00 | 0.15 | 0.00 | 58 | 1018.6 |
| 20260507160502 | 45 | 258 | 13.0 | 20.0 | 0.00 | 0.15 | 0.00 | 56 | 1018.6 |
| 20260507160005 | 45 | 240 | 13.0 | 17.0 | 0.00 | 0.15 | 0.00 | 56 | 1018.7 |
| 20260507155503 | 45 | 237 | 13.0 | 17.0 | 0.00 | 0.15 | 0.00 | 58 | 1018.7 |
| 20260507155002 | 45 | 258 | 14.0 | 20.0 | 0.00 | 0.15 | 0.00 | 57 | 1018.8 |
| 20260507154003 | 45 | 271 | 13.0 | 17.0 | 0.00 | 0.15 | 0.00 | 56 | 1018.8 |
| 20260507153502 | 45 | 256 | 13.0 | 16.0 | 0.00 | 0.15 | 0.00 | 55 | 1018.7 |
| 20260507153002 | 45 | 245 | 13.0 | 18.0 | 0.00 | 0.15 | 0.00 | 56 | 1018.8 |
| 20260507152503 | 44 | 245 | 14.0 | 18.0 | 0.00 | 0.15 | 0.00 | 55 | 1018.8 |
| 20260507152002 | 44 | 259 | 14.0 | 18.0 | 0.00 | 0.15 | 0.00 | 56 | 1018.7 |
| 20260507151502 | 44 | 240 | 16.0 | 20.0 | 0.00 | 0.15 | 0.00 | 56 | 1019.0 |
| 20260507151002 | 44 | 251 | 15.0 | 23.0 | 0.00 | 0.15 | 0.00 | 56 | 1019.1 |
| 20260507150503 | 44 | 273 | 15.0 | 23.0 | 0.00 | 0.15 | 0.00 | 54 | 1019.1 |
| 20260507150005 | 44 | 274 | 14.0 | 21.0 | 0.00 | 0.15 | 0.00 | 54 | 1019.1 |
| 20260507145501 | 44 | 275 | 13.0 | 21.0 | 0.00 | 0.15 | 0.00 | 55 | 1019.1 |
| 20260507145001 | 43 | 278 | 14.0 | 19.0 | 0.00 | 0.15 | 0.00 | 57 | 1019.1 |
| 20260507144501 | 43 | 277 | 13.0 | 18.0 | 0.00 | 0.15 | 0.00 | 54 | 1018.9 |
| 20260507143502 | 44 | 271 | 14.0 | 22.0 | 0.00 | 0.15 | 0.00 | 53 | 1018.8 |
| 20260507143001 | 44 | 297 | 16.0 | 22.0 | 0.00 | 0.15 | 0.00 | 54 | 1018.8 |
| 20260507142502 | 43 | 291 | 17.0 | 22.0 | 0.00 | 0.15 | 0.00 | 54 | 1018.7 |
| 20260507142001 | 43 | 279 | 18.0 | 23.0 | 0.00 | 0.15 | 0.00 | 57 | 1018.7 |
| 20260507141501 | 43 | 285 | 18.0 | 23.0 | 0.00 | 0.15 | 0.00 | 55 | 1018.6 |
| 20260507141001 | 43 | 275 | 18.0 | 24.0 | 0.00 | 0.15 | 0.00 | 55 | 1018.7 |
| 20260507140501 | 43 | 285 | 19.0 | 26.0 | 0.00 | 0.15 | 0.00 | 55 | 1018.8 |
| 20260507140006 | 42 | 283 | 20.0 | 26.0 | 0.00 | 0.15 | 0.00 | 55 | 1018.9 |
| 20260507135502 | 42 | 274 | 20.0 | 26.0 | 0.00 | 0.15 | 0.00 | 55 | 1018.8 |
| 20260507135002 | 42 | 279 | 21.0 | 28.0 | 0.00 | 0.15 | 0.00 | 55 | 1018.7 |
| 20260507134502 | 42 | 268 | 21.0 | 30.0 | 0.00 | 0.15 | 0.00 | 56 | 1018.4 |
| 20260507134001 | 42 | 271 | 19.0 | 27.0 | 0.00 | 0.15 | 0.00 | 57 | 1018.3 |
| 20260507133501 | 41 | 300 | 16.0 | 26.0 | 0.00 | 0.15 | 0.00 | 58 | 1018.1 |
| 20260507133002 | 41 | 293 | 15.0 | 23.0 | 0.00 | 0.15 | 0.00 | 60 | 1018.2 |
| 20260507132501 | 40 | 274 | 14.0 | 23.0 | 0.00 | 0.15 | 0.00 | 59 | 1018.2 |
| 20260507132001 | 40 | 274 | 13.0 | 19.0 | 0.00 | 0.15 | 0.00 | 60 | 1018.2 |
| 20260507131502 | 39 | 279 | 11.0 | 17.0 | 0.00 | 0.15 | 0.00 | 60 | 1018.1 |
| 20260507130004 | 38 | 296 | 18.0 | 26.0 | 0.00 | 0.15 | 0.00 | 58 | 1018.2 |
| 20260507125501 | 39 | 300 | 23.0 | 34.0 | 0.00 | 0.15 | 0.00 | 56 | 1018.0 |
| 20260507125001 | 39 | 277 | 27.0 | 37.0 | 0.00 | 0.15 | 0.00 | 56 | 1017.8 |
| 20260507124501 | 39 | 264 | 31.0 | 42.0 | 0.00 | 0.15 | 0.00 | 56 | 1017.5 |
| 20260507124001 | 39 | 283 | 31.0 | 42.0 | 0.00 | 0.15 | 0.00 | 57 | 1017.0 |
| 20260507123502 | 38 | 282 | 29.0 | 41.0 | 0.00 | 0.15 | 0.00 | 58 | 1016.8 |
| 20260507123001 | 38 | 283 | 27.0 | 35.0 | 0.00 | 0.15 | 0.00 | 58 | 1016.7 |
| 20260507122502 | 38 | 287 | 27.0 | 37.0 | 0.00 | 0.15 | 0.00 | 58 | 1016.7 |
| 20260507122001 | 38 | 287 | 28.0 | 37.0 | 0.00 | 0.15 | 0.00 | 57 | 1016.4 |
| 20260507121501 | 39 | 272 | 28.0 | 37.0 | 0.00 | 0.15 | 0.00 | 56 | 1016.4 |
| 20260507121001 | 38 | 276 | 28.0 | 38.0 | 0.00 | 0.15 | 0.00 | 57 | 1016.6 |
| 20260507120501 | 38 | 281 | 28.0 | 38.0 | 0.00 | 0.15 | 0.00 | 57 | 1016.5 |
| 20260507115501 | 38 | 293 | 27.0 | 37.0 | 0.00 | 0.15 | 0.00 | 58 | 1016.6 |